sensor_id;sensor_type;location;lat;lon;timestamp;P1;durP1;ratioP1;P2;durP2;ratioP2
8411;SDS011;4243;49.296;11.348;2022-10-16T00:01:42;118.37;;;4.23;;
8411;SDS011;4243;49.296;11.348;2022-10-16T00:04:10;118.97;;;4.27;;
8411;SDS011;4243;49.296;11.348;2022-10-16T00:06:38;118.50;;;4.57;;
8411;SDS011;4243;49.296;11.348;2022-10-16T00:09:06;118.20;;;4.50;;
8411;SDS011;4243;49.296;11.348;2022-10-16T00:11:34;118.77;;;4.70;;
8411;SDS011;4243;49.296;11.348;2022-10-16T00:14:05;118.80;;;4.87;;
8411;SDS011;4243;49.296;11.348;2022-10-16T00:16:37;118.83;;;4.40;;
8411;SDS011;4243;49.296;11.348;2022-10-16T00:19:05;118.00;;;4.40;;
8411;SDS011;4243;49.296;11.348;2022-10-16T00:21:33;118.30;;;4.10;;
8411;SDS011;4243;49.296;11.348;2022-10-16T00:24:02;118.60;;;4.03;;
8411;SDS011;4243;49.296;11.348;2022-10-16T00:26:32;118.07;;;4.03;;
8411;SDS011;4243;49.296;11.348;2022-10-16T00:29:01;118.50;;;4.20;;
8411;SDS011;4243;49.296;11.348;2022-10-16T00:31:29;118.77;;;4.80;;
8411;SDS011;4243;49.296;11.348;2022-10-16T00:33:57;118.20;;;4.00;;
8411;SDS011;4243;49.296;11.348;2022-10-16T00:36:24;118.40;;;3.87;;
8411;SDS011;4243;49.296;11.348;2022-10-16T00:38:54;118.47;;;4.30;;
8411;SDS011;4243;49.296;11.348;2022-10-16T00:41:26;118.10;;;3.97;;
8411;SDS011;4243;49.296;11.348;2022-10-16T00:43:56;118.40;;;4.63;;
8411;SDS011;4243;49.296;11.348;2022-10-16T00:49:05;118.67;;;4.33;;
8411;SDS011;4243;49.296;11.348;2022-10-16T00:51:39;118.40;;;4.33;;
8411;SDS011;4243;49.296;11.348;2022-10-16T00:54:15;118.60;;;3.97;;
8411;SDS011;4243;49.296;11.348;2022-10-16T00:56:54;118.40;;;3.80;;
8411;SDS011;4243;49.296;11.348;2022-10-16T00:59:30;118.33;;;4.00;;
8411;SDS011;4243;49.296;11.348;2022-10-16T01:02:06;117.87;;;3.60;;
8411;SDS011;4243;49.296;11.348;2022-10-16T01:04:43;117.80;;;3.77;;
8411;SDS011;4243;49.296;11.348;2022-10-16T01:07:23;117.63;;;3.60;;
8411;SDS011;4243;49.296;11.348;2022-10-16T01:10:56;118.10;;;3.57;;
8411;SDS011;4243;49.296;11.348;2022-10-16T01:13:34;119.23;;;4.40;;
8411;SDS011;4243;49.296;11.348;2022-10-16T01:16:15;118.20;;;4.30;;
8411;SDS011;4243;49.296;11.348;2022-10-16T01:22:37;118.07;;;3.80;;
8411;SDS011;4243;49.296;11.348;2022-10-16T01:25:31;118.20;;;3.37;;
8411;SDS011;4243;49.296;11.348;2022-10-16T01:28:39;118.70;;;3.90;;
8411;SDS011;4243;49.296;11.348;2022-10-16T01:31:31;118.20;;;3.50;;
8411;SDS011;4243;49.296;11.348;2022-10-16T01:34:03;118.20;;;3.57;;
8411;SDS011;4243;49.296;11.348;2022-10-16T01:37:05;118.17;;;3.50;;
8411;SDS011;4243;49.296;11.348;2022-10-16T01:39:39;117.80;;;3.40;;
8411;SDS011;4243;49.296;11.348;2022-10-16T01:42:15;117.27;;;3.10;;
8411;SDS011;4243;49.296;11.348;2022-10-16T01:44:49;118.30;;;3.60;;
8411;SDS011;4243;49.296;11.348;2022-10-16T01:47:19;118.10;;;3.30;;
8411;SDS011;4243;49.296;11.348;2022-10-16T01:49:52;118.40;;;3.70;;
8411;SDS011;4243;49.296;11.348;2022-10-16T01:52:22;117.50;;;3.00;;
8411;SDS011;4243;49.296;11.348;2022-10-16T01:54:54;117.77;;;3.13;;
8411;SDS011;4243;49.296;11.348;2022-10-16T01:57:23;117.90;;;3.03;;
8411;SDS011;4243;49.296;11.348;2022-10-16T01:59:55;117.90;;;2.93;;
8411;SDS011;4243;49.296;11.348;2022-10-16T02:02:37;117.37;;;3.10;;
8411;SDS011;4243;49.296;11.348;2022-10-16T02:05:22;117.80;;;3.10;;
8411;SDS011;4243;49.296;11.348;2022-10-16T02:07:55;118.00;;;2.80;;
8411;SDS011;4243;49.296;11.348;2022-10-16T02:10:25;117.80;;;3.00;;
8411;SDS011;4243;49.296;11.348;2022-10-16T02:12:58;118.07;;;3.13;;
8411;SDS011;4243;49.296;11.348;2022-10-16T02:15:37;118.03;;;3.07;;
8411;SDS011;4243;49.296;11.348;2022-10-16T02:18:05;118.00;;;2.97;;
8411;SDS011;4243;49.296;11.348;2022-10-16T02:20:37;117.90;;;2.93;;
8411;SDS011;4243;49.296;11.348;2022-10-16T02:23:15;118.00;;;3.17;;
8411;SDS011;4243;49.296;11.348;2022-10-16T02:26:03;117.80;;;3.07;;
8411;SDS011;4243;49.296;11.348;2022-10-16T02:28:39;117.77;;;2.83;;
8411;SDS011;4243;49.296;11.348;2022-10-16T02:31:21;117.63;;;3.10;;
8411;SDS011;4243;49.296;11.348;2022-10-16T02:33:54;117.83;;;3.07;;
8411;SDS011;4243;49.296;11.348;2022-10-16T02:36:26;117.70;;;3.10;;
8411;SDS011;4243;49.296;11.348;2022-10-16T02:38:53;118.07;;;3.17;;
8411;SDS011;4243;49.296;11.348;2022-10-16T02:41:22;117.70;;;3.40;;
8411;SDS011;4243;49.296;11.348;2022-10-16T02:43:50;118.27;;;3.37;;
8411;SDS011;4243;49.296;11.348;2022-10-16T02:46:17;117.80;;;3.23;;
8411;SDS011;4243;49.296;11.348;2022-10-16T02:48:45;118.10;;;3.33;;
8411;SDS011;4243;49.296;11.348;2022-10-16T02:51:13;117.80;;;3.27;;
8411;SDS011;4243;49.296;11.348;2022-10-16T02:53:40;117.27;;;3.23;;
8411;SDS011;4243;49.296;11.348;2022-10-16T02:56:08;117.87;;;2.93;;
8411;SDS011;4243;49.296;11.348;2022-10-16T02:58:35;118.57;;;3.10;;
8411;SDS011;4243;49.296;11.348;2022-10-16T03:01:03;117.63;;;3.43;;
8411;SDS011;4243;49.296;11.348;2022-10-16T03:03:30;118.07;;;3.13;;
8411;SDS011;4243;49.296;11.348;2022-10-16T03:05:58;117.87;;;3.40;;
8411;SDS011;4243;49.296;11.348;2022-10-16T03:08:25;117.47;;;3.20;;
8411;SDS011;4243;49.296;11.348;2022-10-16T03:10:52;117.90;;;3.47;;
8411;SDS011;4243;49.296;11.348;2022-10-16T03:13:20;117.73;;;3.27;;
8411;SDS011;4243;49.296;11.348;2022-10-16T03:15:48;117.70;;;3.37;;
8411;SDS011;4243;49.296;11.348;2022-10-16T03:18:15;117.73;;;3.03;;
8411;SDS011;4243;49.296;11.348;2022-10-16T03:20:43;117.60;;;3.10;;
8411;SDS011;4243;49.296;11.348;2022-10-16T03:23:11;117.80;;;2.93;;
8411;SDS011;4243;49.296;11.348;2022-10-16T03:25:38;117.90;;;3.13;;
8411;SDS011;4243;49.296;11.348;2022-10-16T03:28:06;117.87;;;2.90;;
8411;SDS011;4243;49.296;11.348;2022-10-16T03:30:33;117.53;;;2.97;;
8411;SDS011;4243;49.296;11.348;2022-10-16T03:33:01;117.90;;;3.07;;
8411;SDS011;4243;49.296;11.348;2022-10-16T03:35:28;117.97;;;3.27;;
8411;SDS011;4243;49.296;11.348;2022-10-16T03:37:56;117.70;;;3.10;;
8411;SDS011;4243;49.296;11.348;2022-10-16T03:40:23;117.80;;;3.20;;
8411;SDS011;4243;49.296;11.348;2022-10-16T03:42:51;118.13;;;3.20;;
8411;SDS011;4243;49.296;11.348;2022-10-16T03:45:21;118.20;;;3.07;;
8411;SDS011;4243;49.296;11.348;2022-10-16T03:47:48;118.00;;;3.03;;
8411;SDS011;4243;49.296;11.348;2022-10-16T03:50:15;117.80;;;3.17;;
8411;SDS011;4243;49.296;11.348;2022-10-16T03:52:43;117.97;;;3.13;;
8411;SDS011;4243;49.296;11.348;2022-10-16T03:55:10;117.87;;;3.20;;
8411;SDS011;4243;49.296;11.348;2022-10-16T03:57:37;118.10;;;3.03;;
8411;SDS011;4243;49.296;11.348;2022-10-16T04:00:04;117.77;;;2.80;;
8411;SDS011;4243;49.296;11.348;2022-10-16T04:02:37;117.77;;;3.00;;
8411;SDS011;4243;49.296;11.348;2022-10-16T04:05:04;117.63;;;2.97;;
8411;SDS011;4243;49.296;11.348;2022-10-16T04:07:32;117.57;;;2.97;;
8411;SDS011;4243;49.296;11.348;2022-10-16T04:10:00;117.80;;;3.07;;
8411;SDS011;4243;49.296;11.348;2022-10-16T04:12:28;117.60;;;2.80;;
8411;SDS011;4243;49.296;11.348;2022-10-16T04:14:55;117.77;;;3.03;;
8411;SDS011;4243;49.296;11.348;2022-10-16T04:17:22;117.17;;;2.67;;
8411;SDS011;4243;49.296;11.348;2022-10-16T04:19:50;117.33;;;3.00;;
8411;SDS011;4243;49.296;11.348;2022-10-16T04:22:18;117.50;;;2.87;;
8411;SDS011;4243;49.296;11.348;2022-10-16T04:24:45;117.70;;;2.83;;
8411;SDS011;4243;49.296;11.348;2022-10-16T04:27:12;117.27;;;2.90;;
8411;SDS011;4243;49.296;11.348;2022-10-16T04:29:40;117.83;;;3.10;;
8411;SDS011;4243;49.296;11.348;2022-10-16T04:32:07;117.77;;;2.73;;
8411;SDS011;4243;49.296;11.348;2022-10-16T04:34:35;117.90;;;3.10;;
8411;SDS011;4243;49.296;11.348;2022-10-16T04:37:04;117.97;;;3.20;;
8411;SDS011;4243;49.296;11.348;2022-10-16T04:39:31;117.93;;;3.10;;
8411;SDS011;4243;49.296;11.348;2022-10-16T04:41:58;118.30;;;3.30;;
8411;SDS011;4243;49.296;11.348;2022-10-16T04:44:26;117.80;;;3.03;;
8411;SDS011;4243;49.296;11.348;2022-10-16T04:46:53;118.07;;;3.30;;
8411;SDS011;4243;49.296;11.348;2022-10-16T04:49:20;117.70;;;3.20;;
8411;SDS011;4243;49.296;11.348;2022-10-16T04:51:48;118.20;;;3.30;;
8411;SDS011;4243;49.296;11.348;2022-10-16T04:54:15;117.60;;;3.00;;
8411;SDS011;4243;49.296;11.348;2022-10-16T04:56:42;117.80;;;3.20;;
8411;SDS011;4243;49.296;11.348;2022-10-16T04:59:14;117.90;;;3.07;;
8411;SDS011;4243;49.296;11.348;2022-10-16T05:01:41;118.00;;;2.97;;
8411;SDS011;4243;49.296;11.348;2022-10-16T05:04:09;117.77;;;2.90;;
8411;SDS011;4243;49.296;11.348;2022-10-16T05:06:37;117.90;;;3.03;;
8411;SDS011;4243;49.296;11.348;2022-10-16T05:09:05;117.80;;;2.90;;
8411;SDS011;4243;49.296;11.348;2022-10-16T05:11:32;117.77;;;2.87;;
8411;SDS011;4243;49.296;11.348;2022-10-16T05:14:00;117.60;;;3.00;;
8411;SDS011;4243;49.296;11.348;2022-10-16T05:16:28;117.77;;;2.90;;
8411;SDS011;4243;49.296;11.348;2022-10-16T05:18:56;117.40;;;2.97;;
8411;SDS011;4243;49.296;11.348;2022-10-16T05:21:44;118.00;;;2.97;;
8411;SDS011;4243;49.296;11.348;2022-10-16T05:24:12;117.73;;;3.00;;
8411;SDS011;4243;49.296;11.348;2022-10-16T05:26:40;118.40;;;2.97;;
8411;SDS011;4243;49.296;11.348;2022-10-16T05:29:07;117.57;;;2.93;;
8411;SDS011;4243;49.296;11.348;2022-10-16T05:31:36;118.33;;;2.93;;
8411;SDS011;4243;49.296;11.348;2022-10-16T05:34:03;117.93;;;2.77;;
8411;SDS011;4243;49.296;11.348;2022-10-16T05:36:30;118.30;;;3.20;;
8411;SDS011;4243;49.296;11.348;2022-10-16T05:38:58;117.80;;;3.07;;
8411;SDS011;4243;49.296;11.348;2022-10-16T05:41:25;117.70;;;2.83;;
8411;SDS011;4243;49.296;11.348;2022-10-16T05:43:53;118.20;;;2.87;;
8411;SDS011;4243;49.296;11.348;2022-10-16T05:46:20;117.93;;;2.87;;
8411;SDS011;4243;49.296;11.348;2022-10-16T05:48:47;117.97;;;3.07;;
8411;SDS011;4243;49.296;11.348;2022-10-16T05:51:18;117.57;;;2.90;;
8411;SDS011;4243;49.296;11.348;2022-10-16T05:53:45;118.23;;;2.80;;
8411;SDS011;4243;49.296;11.348;2022-10-16T05:56:12;117.30;;;2.90;;
8411;SDS011;4243;49.296;11.348;2022-10-16T05:58:40;118.07;;;2.87;;
8411;SDS011;4243;49.296;11.348;2022-10-16T06:01:15;118.20;;;2.87;;
8411;SDS011;4243;49.296;11.348;2022-10-16T06:03:45;118.27;;;2.83;;
8411;SDS011;4243;49.296;11.348;2022-10-16T06:06:13;117.37;;;2.87;;
8411;SDS011;4243;49.296;11.348;2022-10-16T06:08:44;117.53;;;2.83;;
8411;SDS011;4243;49.296;11.348;2022-10-16T06:11:14;117.80;;;2.93;;
8411;SDS011;4243;49.296;11.348;2022-10-16T06:13:44;118.00;;;2.87;;
8411;SDS011;4243;49.296;11.348;2022-10-16T06:16:16;118.07;;;2.97;;
8411;SDS011;4243;49.296;11.348;2022-10-16T06:18:44;117.80;;;3.07;;
8411;SDS011;4243;49.296;11.348;2022-10-16T06:21:14;117.97;;;2.87;;
8411;SDS011;4243;49.296;11.348;2022-10-16T06:23:45;117.80;;;2.87;;
8411;SDS011;4243;49.296;11.348;2022-10-16T06:26:13;118.07;;;2.97;;
8411;SDS011;4243;49.296;11.348;2022-10-16T06:28:44;117.90;;;3.03;;
8411;SDS011;4243;49.296;11.348;2022-10-16T06:31:12;117.27;;;3.10;;
8411;SDS011;4243;49.296;11.348;2022-10-16T06:33:40;117.57;;;3.10;;
8411;SDS011;4243;49.296;11.348;2022-10-16T06:36:12;118.30;;;3.43;;
8411;SDS011;4243;49.296;11.348;2022-10-16T06:38:43;117.80;;;3.23;;
8411;SDS011;4243;49.296;11.348;2022-10-16T06:41:14;117.67;;;3.40;;
8411;SDS011;4243;49.296;11.348;2022-10-16T06:43:44;118.17;;;3.37;;
8411;SDS011;4243;49.296;11.348;2022-10-16T06:46:13;117.67;;;3.77;;
8411;SDS011;4243;49.296;11.348;2022-10-16T06:48:44;118.27;;;3.60;;
8411;SDS011;4243;49.296;11.348;2022-10-16T06:51:14;117.97;;;3.60;;
8411;SDS011;4243;49.296;11.348;2022-10-16T06:53:45;118.00;;;3.90;;
8411;SDS011;4243;49.296;11.348;2022-10-16T06:56:31;117.80;;;3.50;;
8411;SDS011;4243;49.296;11.348;2022-10-16T06:58:59;117.70;;;3.40;;
8411;SDS011;4243;49.296;11.348;2022-10-16T07:01:27;118.33;;;4.00;;
8411;SDS011;4243;49.296;11.348;2022-10-16T07:03:55;117.47;;;3.50;;
8411;SDS011;4243;49.296;11.348;2022-10-16T07:06:24;117.50;;;3.90;;
8411;SDS011;4243;49.296;11.348;2022-10-16T07:08:53;117.80;;;3.60;;
8411;SDS011;4243;49.296;11.348;2022-10-16T07:11:21;117.70;;;3.67;;
8411;SDS011;4243;49.296;11.348;2022-10-16T07:13:50;118.10;;;3.83;;
8411;SDS011;4243;49.296;11.348;2022-10-16T07:16:23;117.87;;;3.40;;
8411;SDS011;4243;49.296;11.348;2022-10-16T07:18:56;118.23;;;3.87;;
8411;SDS011;4243;49.296;11.348;2022-10-16T07:21:30;117.93;;;3.67;;
8411;SDS011;4243;49.296;11.348;2022-10-16T07:24:03;117.93;;;3.73;;
8411;SDS011;4243;49.296;11.348;2022-10-16T07:26:37;117.60;;;3.73;;
8411;SDS011;4243;49.296;11.348;2022-10-16T07:29:18;117.37;;;4.03;;
8411;SDS011;4243;49.296;11.348;2022-10-16T07:31:47;118.47;;;4.10;;
8411;SDS011;4243;49.296;11.348;2022-10-16T07:34:17;117.83;;;4.00;;
8411;SDS011;4243;49.296;11.348;2022-10-16T07:36:48;117.77;;;3.73;;
8411;SDS011;4243;49.296;11.348;2022-10-16T07:39:16;117.27;;;3.30;;
8411;SDS011;4243;49.296;11.348;2022-10-16T07:41:44;117.67;;;3.60;;
8411;SDS011;4243;49.296;11.348;2022-10-16T07:44:11;117.30;;;3.50;;
8411;SDS011;4243;49.296;11.348;2022-10-16T07:46:39;117.97;;;3.57;;
8411;SDS011;4243;49.296;11.348;2022-10-16T07:49:06;117.80;;;3.50;;
8411;SDS011;4243;49.296;11.348;2022-10-16T07:51:34;117.37;;;3.60;;
8411;SDS011;4243;49.296;11.348;2022-10-16T07:54:02;117.80;;;3.40;;
8411;SDS011;4243;49.296;11.348;2022-10-16T07:56:30;117.50;;;3.60;;
8411;SDS011;4243;49.296;11.348;2022-10-16T07:58:59;117.67;;;3.73;;
8411;SDS011;4243;49.296;11.348;2022-10-16T08:03:54;118.13;;;3.97;;
8411;SDS011;4243;49.296;11.348;2022-10-16T08:06:22;117.40;;;3.53;;
8411;SDS011;4243;49.296;11.348;2022-10-16T08:08:53;118.10;;;3.70;;
8411;SDS011;4243;49.296;11.348;2022-10-16T08:11:22;117.37;;;3.67;;
8411;SDS011;4243;49.296;11.348;2022-10-16T08:13:49;118.57;;;3.83;;
8411;SDS011;4243;49.296;11.348;2022-10-16T08:16:17;117.70;;;3.37;;
8411;SDS011;4243;49.296;11.348;2022-10-16T08:18:44;118.37;;;4.60;;
8411;SDS011;4243;49.296;11.348;2022-10-16T08:21:13;118.23;;;4.47;;
8411;SDS011;4243;49.296;11.348;2022-10-16T08:23:46;118.83;;;5.63;;
8411;SDS011;4243;49.296;11.348;2022-10-16T08:26:22;117.50;;;4.40;;
8411;SDS011;4243;49.296;11.348;2022-10-16T08:28:50;118.50;;;5.00;;
8411;SDS011;4243;49.296;11.348;2022-10-16T08:31:19;118.40;;;5.10;;
8411;SDS011;4243;49.296;11.348;2022-10-16T08:33:46;117.97;;;4.83;;
8411;SDS011;4243;49.296;11.348;2022-10-16T08:36:15;117.57;;;3.90;;
8411;SDS011;4243;49.296;11.348;2022-10-16T08:38:43;117.07;;;3.10;;
8411;SDS011;4243;49.296;11.348;2022-10-16T08:41:27;116.20;;;2.60;;
8411;SDS011;4243;49.296;11.348;2022-10-16T08:47:20;116.93;;;2.40;;
8411;SDS011;4243;49.296;11.348;2022-10-16T08:50:12;117.00;;;2.40;;
8411;SDS011;4243;49.296;11.348;2022-10-16T08:52:50;116.50;;;2.50;;
8411;SDS011;4243;49.296;11.348;2022-10-16T08:55:34;116.90;;;2.67;;
8411;SDS011;4243;49.296;11.348;2022-10-16T08:58:26;117.37;;;2.83;;
8411;SDS011;4243;49.296;11.348;2022-10-16T09:00:57;116.57;;;2.80;;
8411;SDS011;4243;49.296;11.348;2022-10-16T09:03:39;116.87;;;2.80;;
8411;SDS011;4243;49.296;11.348;2022-10-16T09:18:20;116.03;;;2.00;;
8411;SDS011;4243;49.296;11.348;2022-10-16T09:21:14;116.37;;;2.40;;
8411;SDS011;4243;49.296;11.348;2022-10-16T09:23:48;116.23;;;2.73;;
8411;SDS011;4243;49.296;11.348;2022-10-16T09:26:16;116.97;;;2.90;;
8411;SDS011;4243;49.296;11.348;2022-10-16T09:28:45;117.07;;;2.80;;
8411;SDS011;4243;49.296;11.348;2022-10-16T09:31:15;116.80;;;2.67;;
8411;SDS011;4243;49.296;11.348;2022-10-16T09:33:47;116.90;;;3.10;;
8411;SDS011;4243;49.296;11.348;2022-10-16T09:36:23;116.97;;;3.37;;
8411;SDS011;4243;49.296;11.348;2022-10-16T09:39:04;116.73;;;3.30;;
8411;SDS011;4243;49.296;11.348;2022-10-16T09:41:35;117.00;;;3.00;;
8411;SDS011;4243;49.296;11.348;2022-10-16T09:44:15;116.20;;;2.30;;
8411;SDS011;4243;49.296;11.348;2022-10-16T09:47:01;116.80;;;2.20;;
8411;SDS011;4243;49.296;11.348;2022-10-16T09:49:49;117.10;;;2.23;;
8411;SDS011;4243;49.296;11.348;2022-10-16T09:52:23;116.70;;;2.20;;
8411;SDS011;4243;49.296;11.348;2022-10-16T09:54:55;116.80;;;2.27;;
8411;SDS011;4243;49.296;11.348;2022-10-16T09:57:52;117.00;;;2.20;;
8411;SDS011;4243;49.296;11.348;2022-10-16T10:00:21;116.97;;;2.20;;
8411;SDS011;4243;49.296;11.348;2022-10-16T10:02:50;117.00;;;2.17;;
8411;SDS011;4243;49.296;11.348;2022-10-16T10:05:29;116.80;;;2.30;;
8411;SDS011;4243;49.296;11.348;2022-10-16T10:07:57;117.07;;;2.20;;
8411;SDS011;4243;49.296;11.348;2022-10-16T10:10:40;117.07;;;2.30;;
8411;SDS011;4243;49.296;11.348;2022-10-16T10:13:42;117.27;;;2.30;;
8411;SDS011;4243;49.296;11.348;2022-10-16T10:16:02;116.80;;;2.40;;
8411;SDS011;4243;49.296;11.348;2022-10-16T10:18:30;116.63;;;2.13;;
8411;SDS011;4243;49.296;11.348;2022-10-16T10:20:59;116.53;;;2.23;;
8411;SDS011;4243;49.296;11.348;2022-10-16T10:23:33;117.13;;;2.30;;
8411;SDS011;4243;49.296;11.348;2022-10-16T10:28:49;116.57;;;2.00;;
8411;SDS011;4243;49.296;11.348;2022-10-16T10:40:12;116.97;;;1.80;;
8411;SDS011;4243;49.296;11.348;2022-10-16T10:43:04;117.20;;;1.90;;
8411;SDS011;4243;49.296;11.348;2022-10-16T10:45:48;116.57;;;1.87;;
8411;SDS011;4243;49.296;11.348;2022-10-16T10:48:35;116.47;;;1.90;;
8411;SDS011;4243;49.296;11.348;2022-10-16T10:51:10;115.97;;;2.00;;
8411;SDS011;4243;49.296;11.348;2022-10-16T11:05:12;115.47;;;2.00;;
8411;SDS011;4243;49.296;11.348;2022-10-16T11:08:07;113.37;;;1.90;;
8411;SDS011;4243;49.296;11.348;2022-10-16T11:10:58;114.20;;;1.90;;
8411;SDS011;4243;49.296;11.348;2022-10-16T11:13:45;112.27;;;1.70;;
8411;SDS011;4243;49.296;11.348;2022-10-16T11:16:28;113.60;;;1.60;;
8411;SDS011;4243;49.296;11.348;2022-10-16T11:25:12;113.50;;;1.70;;
8411;SDS011;4243;49.296;11.348;2022-10-16T11:28:02;113.80;;;1.90;;
8411;SDS011;4243;49.296;11.348;2022-10-16T11:30:46;113.80;;;1.83;;
8411;SDS011;4243;49.296;11.348;2022-10-16T11:36:19;114.30;;;2.00;;
8411;SDS011;4243;49.296;11.348;2022-10-16T11:41:55;114.10;;;2.20;;
8411;SDS011;4243;49.296;11.348;2022-10-16T11:47:33;114.67;;;2.10;;
8411;SDS011;4243;49.296;11.348;2022-10-16T11:50:34;114.97;;;2.33;;
8411;SDS011;4243;49.296;11.348;2022-10-16T11:53:21;115.50;;;2.23;;
8411;SDS011;4243;49.296;11.348;2022-10-16T11:55:50;115.57;;;2.00;;
8411;SDS011;4243;49.296;11.348;2022-10-16T11:58:29;115.47;;;2.10;;
8411;SDS011;4243;49.296;11.348;2022-10-16T12:03:39;115.97;;;2.00;;
8411;SDS011;4243;49.296;11.348;2022-10-16T12:09:24;114.57;;;1.80;;
8411;SDS011;4243;49.296;11.348;2022-10-16T12:11:54;113.90;;;2.47;;
8411;SDS011;4243;49.296;11.348;2022-10-16T12:19:59;112.40;;;1.80;;
8411;SDS011;4243;49.296;11.348;2022-10-16T12:22:55;112.57;;;1.70;;
8411;SDS011;4243;49.296;11.348;2022-10-16T12:25:33;112.77;;;1.77;;
8411;SDS011;4243;49.296;11.348;2022-10-16T12:28:04;112.70;;;1.83;;
8411;SDS011;4243;49.296;11.348;2022-10-16T12:30:43;112.97;;;2.20;;
8411;SDS011;4243;49.296;11.348;2022-10-16T12:33:34;112.07;;;2.30;;
8411;SDS011;4243;49.296;11.348;2022-10-16T12:36:05;112.70;;;2.70;;
8411;SDS011;4243;49.296;11.348;2022-10-16T12:38:52;112.10;;;2.37;;
8411;SDS011;4243;49.296;11.348;2022-10-16T12:41:28;112.53;;;2.17;;
8411;SDS011;4243;49.296;11.348;2022-10-16T12:43:58;111.70;;;2.30;;
8411;SDS011;4243;49.296;11.348;2022-10-16T12:46:37;112.17;;;1.77;;
8411;SDS011;4243;49.296;11.348;2022-10-16T12:49:14;112.67;;;1.97;;
8411;SDS011;4243;49.296;11.348;2022-10-16T12:51:57;113.13;;;2.53;;
8411;SDS011;4243;49.296;11.348;2022-10-16T12:54:28;114.77;;;3.03;;
8411;SDS011;4243;49.296;11.348;2022-10-16T12:57:25;114.20;;;3.03;;
8411;SDS011;4243;49.296;11.348;2022-10-16T13:06:33;113.87;;;2.07;;
8411;SDS011;4243;49.296;11.348;2022-10-16T13:15:22;114.47;;;2.00;;
8411;SDS011;4243;49.296;11.348;2022-10-16T13:18:19;112.40;;;2.10;;
8411;SDS011;4243;49.296;11.348;2022-10-16T13:27:03;111.67;;;1.60;;
8411;SDS011;4243;49.296;11.348;2022-10-16T13:29:54;111.30;;;1.50;;
8411;SDS011;4243;49.296;11.348;2022-10-16T13:32:39;111.60;;;1.50;;
8411;SDS011;4243;49.296;11.348;2022-10-16T13:35:25;112.37;;;1.70;;
8411;SDS011;4243;49.296;11.348;2022-10-16T13:38:09;112.00;;;1.80;;
8411;SDS011;4243;49.296;11.348;2022-10-16T13:40:51;111.57;;;1.80;;
8411;SDS011;4243;49.296;11.348;2022-10-16T13:46:17;112.30;;;1.70;;
8411;SDS011;4243;49.296;11.348;2022-10-16T13:48:59;111.97;;;1.90;;
8411;SDS011;4243;49.296;11.348;2022-10-16T13:51:30;111.80;;;2.00;;
8411;SDS011;4243;49.296;11.348;2022-10-16T13:53:59;111.77;;;1.70;;
8411;SDS011;4243;49.296;11.348;2022-10-16T13:56:27;111.07;;;1.60;;
8411;SDS011;4243;49.296;11.348;2022-10-16T13:58:58;111.87;;;1.70;;
8411;SDS011;4243;49.296;11.348;2022-10-16T14:01:42;112.07;;;1.63;;
8411;SDS011;4243;49.296;11.348;2022-10-16T14:04:11;111.87;;;1.70;;
8411;SDS011;4243;49.296;11.348;2022-10-16T14:06:42;111.33;;;1.53;;
8411;SDS011;4243;49.296;11.348;2022-10-16T14:09:16;112.17;;;1.60;;
8411;SDS011;4243;49.296;11.348;2022-10-16T14:11:55;112.97;;;1.60;;
8411;SDS011;4243;49.296;11.348;2022-10-16T14:14:27;113.43;;;1.63;;
8411;SDS011;4243;49.296;11.348;2022-10-16T14:17:02;113.57;;;1.60;;
8411;SDS011;4243;49.296;11.348;2022-10-16T14:19:29;114.47;;;1.67;;
8411;SDS011;4243;49.296;11.348;2022-10-16T14:21:58;113.87;;;1.60;;
8411;SDS011;4243;49.296;11.348;2022-10-16T14:24:31;115.57;;;1.70;;
8411;SDS011;4243;49.296;11.348;2022-10-16T14:27:01;115.57;;;1.83;;
8411;SDS011;4243;49.296;11.348;2022-10-16T14:33:00;114.67;;;1.90;;
8411;SDS011;4243;49.296;11.348;2022-10-16T14:35:56;115.50;;;1.97;;
8411;SDS011;4243;49.296;11.348;2022-10-16T14:38:35;115.80;;;1.93;;
8411;SDS011;4243;49.296;11.348;2022-10-16T14:41:05;113.97;;;1.77;;
8411;SDS011;4243;49.296;11.348;2022-10-16T14:43:34;114.47;;;1.80;;
8411;SDS011;4243;49.296;11.348;2022-10-16T14:46:12;113.77;;;2.03;;
8411;SDS011;4243;49.296;11.348;2022-10-16T14:48:43;114.57;;;2.43;;
8411;SDS011;4243;49.296;11.348;2022-10-16T14:51:14;114.17;;;1.87;;
8411;SDS011;4243;49.296;11.348;2022-10-16T14:53:46;112.60;;;1.77;;
8411;SDS011;4243;49.296;11.348;2022-10-16T14:56:21;113.00;;;1.60;;
8411;SDS011;4243;49.296;11.348;2022-10-16T14:58:51;113.97;;;1.60;;
8411;SDS011;4243;49.296;11.348;2022-10-16T15:01:19;113.27;;;1.60;;
8411;SDS011;4243;49.296;11.348;2022-10-16T15:03:46;114.10;;;1.80;;
8411;SDS011;4243;49.296;11.348;2022-10-16T15:06:15;115.10;;;2.20;;
8411;SDS011;4243;49.296;11.348;2022-10-16T15:08:43;114.67;;;2.10;;
8411;SDS011;4243;49.296;11.348;2022-10-16T15:11:11;115.90;;;1.87;;
8411;SDS011;4243;49.296;11.348;2022-10-16T15:13:42;115.50;;;2.00;;
8411;SDS011;4243;49.296;11.348;2022-10-16T15:16:14;116.67;;;1.90;;
8411;SDS011;4243;49.296;11.348;2022-10-16T15:18:43;117.07;;;1.97;;
8411;SDS011;4243;49.296;11.348;2022-10-16T15:21:19;116.90;;;2.03;;
8411;SDS011;4243;49.296;11.348;2022-10-16T15:23:52;116.97;;;2.00;;
8411;SDS011;4243;49.296;11.348;2022-10-16T15:26:20;117.10;;;2.13;;
8411;SDS011;4243;49.296;11.348;2022-10-16T15:28:48;117.40;;;2.60;;
8411;SDS011;4243;49.296;11.348;2022-10-16T15:31:16;117.67;;;2.90;;
8411;SDS011;4243;49.296;11.348;2022-10-16T15:33:44;118.07;;;3.37;;
8411;SDS011;4243;49.296;11.348;2022-10-16T15:36:28;117.50;;;3.30;;
8411;SDS011;4243;49.296;11.348;2022-10-16T15:39:04;117.37;;;3.07;;
8411;SDS011;4243;49.296;11.348;2022-10-16T15:41:40;117.90;;;2.97;;
8411;SDS011;4243;49.296;11.348;2022-10-16T15:44:08;118.07;;;2.97;;
8411;SDS011;4243;49.296;11.348;2022-10-16T15:46:36;117.80;;;2.60;;
8411;SDS011;4243;49.296;11.348;2022-10-16T15:49:03;117.70;;;2.30;;
8411;SDS011;4243;49.296;11.348;2022-10-16T15:51:32;117.50;;;2.27;;
8411;SDS011;4243;49.296;11.348;2022-10-16T15:54:00;117.70;;;2.20;;
8411;SDS011;4243;49.296;11.348;2022-10-16T15:56:28;117.77;;;2.03;;
8411;SDS011;4243;49.296;11.348;2022-10-16T15:58:56;117.93;;;2.00;;
8411;SDS011;4243;49.296;11.348;2022-10-16T16:01:25;117.43;;;2.10;;
8411;SDS011;4243;49.296;11.348;2022-10-16T16:03:53;117.50;;;2.00;;
8411;SDS011;4243;49.296;11.348;2022-10-16T16:06:21;117.60;;;2.00;;
8411;SDS011;4243;49.296;11.348;2022-10-16T16:08:50;117.90;;;2.10;;
8411;SDS011;4243;49.296;11.348;2022-10-16T16:11:18;118.10;;;2.10;;
8411;SDS011;4243;49.296;11.348;2022-10-16T16:13:46;117.90;;;2.20;;
8411;SDS011;4243;49.296;11.348;2022-10-16T16:16:15;117.80;;;2.13;;
8411;SDS011;4243;49.296;11.348;2022-10-16T16:18:45;118.27;;;2.23;;
8411;SDS011;4243;49.296;11.348;2022-10-16T16:21:15;118.77;;;2.20;;
8411;SDS011;4243;49.296;11.348;2022-10-16T16:23:43;118.30;;;2.20;;
8411;SDS011;4243;49.296;11.348;2022-10-16T16:28:52;118.47;;;2.20;;
8411;SDS011;4243;49.296;11.348;2022-10-16T16:31:25;118.40;;;2.13;;
8411;SDS011;4243;49.296;11.348;2022-10-16T16:33:54;118.40;;;2.30;;
8411;SDS011;4243;49.296;11.348;2022-10-16T16:36:23;118.43;;;2.10;;
8411;SDS011;4243;49.296;11.348;2022-10-16T16:38:51;118.33;;;2.20;;
8411;SDS011;4243;49.296;11.348;2022-10-16T16:41:23;118.50;;;2.13;;
8411;SDS011;4243;49.296;11.348;2022-10-16T16:43:53;118.50;;;2.20;;
8411;SDS011;4243;49.296;11.348;2022-10-16T16:46:28;118.40;;;2.30;;
8411;SDS011;4243;49.296;11.348;2022-10-16T16:48:57;118.50;;;2.23;;